createdAt,value
2018-04-12T00:01:14.654Z,7.10
2018-04-12T00:03:44.211Z,6.60
2018-04-12T00:06:13.007Z,7.63
2018-04-12T00:08:41.806Z,8.23
2018-04-12T00:11:10.689Z,6.63
2018-04-12T00:13:39.480Z,6.77
2018-04-12T00:16:08.290Z,8.23
2018-04-12T00:18:37.141Z,7.17
2018-04-12T00:21:05.938Z,6.57
2018-04-12T00:23:34.748Z,6.87
2018-04-12T00:26:03.745Z,6.63
2018-04-12T00:28:32.529Z,6.50
2018-04-12T00:31:01.336Z,7.27
2018-04-12T00:33:30.181Z,7.00
2018-04-12T00:35:59.237Z,7.07
2018-04-12T00:38:28.031Z,8.70
2018-04-12T00:40:57.271Z,6.30
2018-04-12T00:43:26.060Z,8.63
2018-04-12T00:45:54.862Z,6.67
2018-04-12T00:48:23.705Z,6.30
2018-04-12T00:50:52.512Z,5.90
2018-04-12T00:53:27.559Z,7.30
2018-04-12T00:55:56.364Z,5.90
2018-04-12T00:58:25.242Z,6.07
2018-04-12T01:00:54.341Z,6.87
2018-04-12T01:03:23.158Z,6.60
2018-04-12T01:05:51.942Z,6.27
2018-04-12T01:08:22.451Z,6.33
2018-04-12T01:10:51.296Z,5.43
2018-04-12T01:13:20.095Z,7.40
2018-04-12T01:15:48.942Z,7.37
2018-04-12T01:18:17.740Z,6.23
2018-04-12T01:20:46.528Z,7.50
2018-04-12T01:23:15.377Z,6.27
2018-04-12T01:25:44.170Z,6.20
2018-04-12T01:28:12.963Z,6.00
2018-04-12T01:30:41.940Z,6.20
2018-04-12T01:33:16.529Z,7.00
2018-04-12T01:35:45.586Z,7.20
2018-04-12T01:38:15.150Z,5.67
2018-04-12T01:40:43.964Z,6.87
2018-04-12T01:43:12.972Z,7.40
2018-04-12T01:45:41.765Z,7.30
2018-04-12T01:48:10.555Z,9.50
2018-04-12T01:50:39.848Z,6.03
2018-04-12T01:53:08.649Z,5.50
2018-04-12T01:55:37.423Z,5.57
2018-04-12T01:58:06.269Z,8.23
2018-04-12T02:00:35.111Z,5.63
2018-04-12T02:03:03.906Z,6.03
2018-04-12T02:05:32.779Z,5.63
2018-04-12T02:08:03.183Z,5.43
2018-04-12T02:10:31.974Z,5.97
2018-04-12T02:13:00.842Z,5.43
2018-04-12T02:15:29.649Z,4.47
2018-04-12T02:17:58.456Z,6.87
2018-04-12T02:20:27.554Z,4.73
2018-04-12T02:22:56.450Z,5.63
2018-04-12T02:25:25.346Z,6.03
2018-04-12T02:27:54.237Z,4.83
2018-04-12T02:30:23.028Z,7.53
2018-04-12T02:32:51.826Z,10.47
2018-04-12T02:35:20.903Z,10.93
2018-04-12T02:37:49.714Z,13.43
2018-04-12T02:40:18.594Z,12.37
2018-04-12T02:42:48.298Z,12.53
2018-04-12T02:45:17.096Z,13.70
2018-04-12T02:47:45.901Z,13.47
2018-04-12T02:50:14.753Z,12.07
2018-04-12T02:52:43.561Z,15.17
2018-04-12T02:55:12.366Z,13.50
2018-04-12T02:57:41.227Z,15.70
2018-04-12T03:00:10.031Z,17.73
2018-04-12T03:02:38.834Z,17.27
2018-04-12T03:05:08.011Z,16.40
2018-04-12T03:07:37.491Z,16.27
2018-04-12T03:10:06.350Z,17.67
2018-04-12T03:12:35.161Z,18.13
2018-04-12T03:15:03.980Z,18.57
2018-04-12T03:17:32.806Z,19.50
2018-04-12T03:20:01.662Z,20.10
2018-04-12T03:22:31.178Z,19.43
2018-04-12T03:25:00.001Z,20.70
2018-04-12T03:27:28.818Z,21.60
2018-04-12T03:29:57.840Z,22.77
2018-04-12T03:32:26.738Z,21.70
2018-04-12T03:34:55.567Z,22.30
2018-04-12T03:37:24.475Z,22.17
2018-04-12T03:39:53.278Z,22.10
2018-04-12T03:42:22.088Z,22.73
2018-04-12T03:44:50.936Z,22.40
2018-04-12T03:47:19.737Z,23.93
2018-04-12T03:49:48.556Z,25.97
2018-04-12T03:52:17.444Z,24.47
2018-04-12T03:54:46.238Z,24.13
2018-04-12T03:57:15.128Z,25.63
2018-04-12T03:59:44.246Z,24.80
2018-04-12T04:02:13.129Z,26.03
2018-04-12T04:04:41.926Z,26.80
2018-04-12T04:07:10.768Z,26.43
2018-04-12T04:09:40.819Z,27.03
2018-04-12T04:12:09.662Z,28.70
2018-04-12T04:14:41.446Z,26.57
2018-04-12T04:17:16.047Z,27.07
2018-04-12T04:19:50.807Z,29.43
2018-04-12T04:22:19.659Z,30.00
2018-04-12T04:24:48.483Z,31.60
2018-04-12T04:27:18.012Z,30.40
2018-04-12T04:29:46.826Z,31.03
2018-04-12T04:32:15.682Z,28.53
2018-04-12T04:34:44.793Z,26.27
2018-04-12T04:37:13.590Z,24.87
2018-04-12T04:39:42.386Z,27.07
2018-04-12T04:42:11.237Z,27.67
2018-04-12T04:44:40.051Z,26.70
2018-04-12T04:47:08.850Z,30.63
2018-04-12T04:49:37.931Z,30.67
2018-04-12T04:52:06.738Z,34.23
2018-04-12T04:54:35.547Z,36.17
2018-04-12T04:57:04.411Z,35.03
2018-04-12T04:59:33.210Z,37.53
2018-04-12T05:02:02.034Z,38.03
2018-04-12T05:04:31.490Z,38.50
2018-04-12T05:07:00.290Z,34.47
2018-04-12T05:09:29.136Z,36.97
2018-04-12T05:11:58.663Z,33.30
2018-04-12T05:14:27.492Z,34.30
2018-04-12T05:16:56.609Z,32.27
2018-04-12T05:19:25.450Z,33.20
2018-04-12T05:21:54.218Z,34.77
2018-04-12T05:24:23.092Z,34.00
2018-04-12T05:26:51.913Z,33.10
2018-04-12T05:29:21.653Z,35.73
2018-04-12T05:31:50.492Z,34.60
2018-04-12T05:34:19.305Z,36.27
2018-04-12T05:36:48.107Z,38.40
2018-04-12T05:39:18.018Z,34.33
2018-04-12T05:41:46.853Z,34.90
2018-04-12T05:44:15.642Z,33.80
2018-04-12T05:46:44.514Z,34.63
2018-04-12T05:49:13.313Z,35.83
2018-04-12T05:51:42.142Z,35.43
2018-04-12T05:54:11.242Z,34.37
2018-04-12T05:56:40.035Z,34.87
2018-04-12T05:59:08.854Z,34.93
2018-04-12T06:01:37.822Z,43.00
2018-04-12T06:04:06.618Z,39.80
2018-04-12T06:06:35.431Z,38.00
2018-04-12T06:09:05.829Z,40.07
2018-04-12T06:11:34.639Z,39.10
2018-04-12T06:14:03.446Z,37.00
2018-04-12T06:16:32.603Z,37.73
2018-04-12T06:19:01.435Z,39.33
2018-04-12T06:21:30.242Z,36.33
2018-04-12T06:23:59.174Z,36.17
2018-04-12T06:26:27.997Z,36.63
2018-04-12T06:28:57.050Z,35.40
2018-04-12T06:31:25.901Z,37.60
2018-04-12T06:33:54.731Z,36.60
2018-04-12T06:36:23.557Z,37.60
2018-04-12T06:38:52.355Z,38.00
2018-04-12T06:41:21.196Z,36.43
2018-04-12T06:43:50.003Z,35.80
2018-04-12T06:46:18.813Z,35.93
2018-04-12T06:48:47.687Z,34.07
2018-04-12T06:51:17.291Z,34.50
2018-04-12T06:53:46.090Z,36.33
2018-04-12T06:56:14.965Z,35.77
2018-04-12T06:58:43.783Z,34.50
2018-04-12T07:01:12.603Z,34.83
2018-04-12T07:03:42.090Z,36.17
2018-04-12T07:06:10.906Z,36.33
2018-04-12T07:08:39.710Z,34.20
2018-04-12T07:11:08.923Z,35.50
2018-04-12T07:13:37.746Z,33.33
2018-04-12T07:16:07.332Z,34.47
2018-04-12T07:18:36.235Z,31.63
2018-04-12T07:21:05.117Z,31.97
2018-04-12T07:23:34.004Z,30.50
2018-04-12T07:26:02.835Z,31.07
2018-04-12T07:28:31.639Z,30.63
2018-04-12T07:31:00.510Z,31.43
2018-04-12T07:33:29.325Z,31.77
2018-04-12T07:35:58.144Z,28.20
2018-04-12T07:38:27.250Z,30.17
2018-04-12T07:40:56.074Z,29.23
2018-04-12T07:43:24.948Z,28.60
2018-04-12T07:45:53.782Z,27.23
2018-04-12T07:48:22.590Z,26.90
2018-04-12T07:50:51.433Z,27.23
2018-04-12T07:53:20.233Z,26.73
2018-04-12T07:55:49.065Z,25.73
2018-04-12T07:58:17.958Z,24.17
2018-04-12T08:00:46.761Z,24.07
2018-04-12T08:03:15.646Z,23.33
2018-04-12T08:05:45.151Z,22.20
2018-04-12T08:08:15.478Z,23.20
2018-04-12T08:10:44.292Z,21.13
2018-04-12T08:13:13.129Z,20.77
2018-04-12T08:15:41.937Z,20.47
2018-04-12T08:18:10.807Z,19.60
2018-04-12T08:20:39.817Z,17.43
2018-04-12T08:23:08.633Z,17.83
2018-04-12T08:25:37.422Z,16.17
2018-04-12T08:28:07.007Z,16.13
2018-04-12T08:30:35.815Z,16.33
2018-04-12T08:33:04.610Z,15.50
2018-04-12T08:35:33.778Z,18.70
2018-04-12T08:38:02.584Z,15.10
2018-04-12T08:40:31.371Z,16.23
2018-04-12T08:43:00.230Z,19.60
2018-04-12T08:45:29.051Z,19.20
2018-04-12T08:47:57.862Z,19.03
2018-04-12T08:50:26.729Z,18.57
2018-04-12T08:52:55.522Z,18.70
2018-04-12T08:55:24.330Z,16.97
2018-04-12T08:57:53.190Z,17.60
2018-04-12T09:00:21.982Z,16.23
2018-04-12T09:02:50.781Z,15.77
2018-04-12T09:05:20.073Z,15.23
2018-04-12T09:07:48.958Z,16.80
2018-04-12T09:10:17.779Z,14.53
2018-04-12T09:12:46.798Z,14.83
2018-04-12T09:15:15.609Z,15.63
2018-04-12T09:17:44.410Z,16.90
2018-04-12T09:20:13.544Z,15.10
2018-04-12T09:22:42.345Z,16.90
2018-04-12T09:25:11.162Z,14.47
2018-04-12T09:27:40.206Z,14.50
2018-04-12T09:30:08.982Z,16.10
2018-04-12T09:32:37.819Z,19.43
2018-04-12T09:35:06.642Z,12.83
2018-04-12T09:37:35.456Z,13.00
2018-04-12T09:40:04.453Z,14.67
2018-04-12T09:42:33.231Z,15.50
2018-04-12T09:45:02.130Z,12.53
2018-04-12T09:47:30.951Z,12.63
2018-04-12T09:49:59.762Z,14.53
2018-04-12T09:52:28.890Z,13.67
2018-04-12T09:54:57.695Z,17.23
2018-04-12T09:57:26.589Z,13.27
2018-04-12T09:59:55.476Z,15.87
2018-04-12T10:02:28.724Z,15.17
2018-04-12T10:05:00.373Z,14.90
2018-04-12T10:07:36.709Z,21.47
2018-04-12T10:10:05.587Z,13.00
2018-04-12T10:12:34.418Z,11.73
2018-04-12T10:15:03.282Z,14.33
2018-04-12T10:17:32.115Z,13.60
2018-04-12T10:20:00.966Z,11.23
2018-04-12T10:22:29.833Z,11.57
2018-04-12T10:24:58.646Z,10.33
2018-04-12T10:27:27.421Z,8.83
2018-04-12T10:29:56.909Z,13.83
2018-04-12T10:32:25.710Z,8.03
2018-04-12T10:34:54.505Z,9.47
2018-04-12T10:37:23.380Z,9.43
2018-04-12T10:39:52.182Z,10.60
2018-04-12T10:42:20.997Z,10.17
2018-04-12T10:44:49.840Z,9.43
2018-04-12T10:47:18.613Z,9.70
2018-04-12T10:49:47.406Z,10.10
2018-04-12T10:52:16.806Z,11.80
2018-04-12T10:54:45.608Z,10.07
2018-04-12T10:57:14.406Z,11.73
2018-04-12T10:59:43.248Z,9.53
2018-04-12T11:02:12.055Z,10.67
2018-04-12T11:04:40.864Z,14.27
2018-04-12T11:07:09.682Z,11.07
2018-04-12T11:09:39.674Z,8.90
2018-04-12T11:12:09.594Z,12.17
2018-04-12T11:14:38.383Z,9.80
2018-04-12T11:17:07.191Z,9.37
2018-04-12T11:19:36.274Z,9.20
2018-04-12T11:22:05.069Z,9.70
2018-04-12T11:24:34.621Z,11.67
2018-04-12T11:27:03.465Z,7.87
2018-04-12T11:29:32.355Z,9.60
2018-04-12T11:32:01.441Z,9.53
2018-04-12T11:34:30.323Z,7.70
2018-04-12T11:36:59.079Z,8.57
2018-04-12T11:39:28.105Z,9.23
2018-04-12T11:41:56.911Z,8.67
2018-04-12T11:44:25.726Z,10.60
2018-04-12T11:46:55.315Z,11.03
2018-04-12T11:49:24.094Z,9.17
2018-04-12T11:51:52.971Z,8.27
2018-04-12T11:54:21.766Z,6.90
2018-04-12T11:56:50.604Z,6.87
2018-04-12T11:59:19.755Z,6.67
2018-04-12T12:01:48.640Z,8.03
2018-04-12T12:04:17.435Z,8.60
2018-04-12T12:06:46.284Z,8.53
2018-04-12T12:09:15.088Z,10.30
2018-04-12T12:11:45.168Z,7.77
2018-04-12T12:14:13.963Z,8.90
2018-04-12T12:16:42.774Z,8.13
2018-04-12T12:19:11.812Z,9.97
2018-04-12T12:21:40.698Z,9.53
2018-04-12T12:24:09.501Z,11.02
2018-04-12T12:26:42.476Z,8.73
2018-04-12T12:29:11.266Z,8.73
2018-04-12T12:31:40.077Z,5.78
2018-04-12T12:34:08.956Z,5.85
2018-04-12T12:36:37.825Z,6.75
2018-04-12T12:39:06.671Z,8.98
2018-04-12T12:41:41.356Z,7.35
2018-04-12T12:44:10.150Z,6.87
2018-04-12T12:46:38.950Z,5.97
2018-04-12T12:49:07.819Z,8.45
2018-04-12T12:51:36.622Z,5.70
2018-04-12T12:54:05.494Z,6.12
2018-04-12T12:56:34.593Z,5.20
2018-04-12T12:59:03.392Z,6.65
2018-04-12T13:01:32.192Z,5.93
2018-04-12T13:04:01.216Z,5.03
2018-04-12T13:06:30.016Z,6.05
2018-04-12T13:09:00.070Z,4.45
2018-04-12T13:11:29.162Z,6.25
2018-04-12T13:13:59.150Z,4.75
2018-04-12T13:16:28.587Z,5.75
2018-04-12T13:18:57.374Z,4.72
2018-04-12T13:21:26.166Z,5.75
2018-04-12T13:23:54.996Z,4.97
2018-04-12T13:26:23.798Z,6.12
2018-04-12T13:28:52.837Z,6.07
2018-04-12T13:31:21.635Z,5.35
2018-04-12T13:33:50.426Z,6.78
2018-04-12T13:36:25.178Z,8.18
2018-04-12T13:38:53.967Z,4.10
2018-04-12T13:41:23.391Z,5.78
2018-04-12T13:43:58.465Z,4.43
2018-04-12T13:46:32.953Z,6.45
2018-04-12T13:49:01.816Z,4.12
2018-04-12T13:51:30.616Z,4.65
2018-04-12T13:53:59.410Z,5.78
2018-04-12T13:56:33.983Z,4.47
2018-04-12T13:59:02.800Z,5.15
2018-04-12T14:01:31.600Z,4.05
2018-04-12T14:04:01.208Z,4.00
2018-04-12T14:06:30.061Z,3.35
2018-04-12T14:09:04.730Z,7.05
2018-04-12T14:11:33.585Z,4.12
2018-04-12T14:14:02.846Z,4.40
2018-04-12T14:16:31.687Z,4.30
2018-04-12T14:19:06.282Z,5.68
2018-04-12T14:21:37.450Z,6.30
2018-04-12T14:24:06.262Z,3.30
2018-04-12T14:26:35.130Z,3.30
2018-04-12T14:29:10.163Z,4.35
2018-04-12T14:31:39.051Z,6.90
2018-04-12T14:34:07.844Z,4.30
2018-04-12T14:36:43.077Z,4.68
2018-04-12T14:39:11.910Z,4.37
2018-04-12T14:41:40.711Z,4.25
2018-04-12T14:44:09.501Z,2.75
2018-04-12T14:46:38.538Z,3.90
2018-04-12T14:49:07.322Z,2.87
2018-04-12T14:51:36.177Z,2.58
2018-04-12T14:54:05.623Z,3.50
2018-04-12T14:56:34.427Z,5.07
2018-04-12T14:59:09.242Z,3.92
2018-04-12T15:01:38.050Z,2.72
2018-04-12T15:04:06.918Z,2.72
2018-04-12T15:06:36.137Z,2.22
2018-04-12T15:09:12.665Z,5.25
2018-04-12T15:11:41.710Z,2.83
2018-04-12T15:14:10.512Z,2.37
2018-04-12T15:16:39.295Z,2.78
2018-04-12T15:19:08.177Z,4.50
2018-04-12T15:21:42.743Z,2.72
2018-04-12T15:24:11.587Z,3.37
2018-04-12T15:26:40.375Z,2.60
2018-04-12T15:29:09.165Z,3.67
2018-04-12T15:31:38.014Z,5.40
2018-04-12T15:34:06.818Z,3.75
2018-04-12T15:36:35.627Z,2.45
2018-04-12T15:39:04.474Z,4.78
2018-04-12T15:41:33.311Z,2.37
2018-04-12T15:44:02.196Z,2.92
2018-04-12T15:46:37.959Z,2.00
2018-04-12T15:49:12.583Z,2.55
2018-04-12T15:51:41.437Z,2.85
2018-04-12T15:54:10.248Z,3.90
2018-04-12T15:56:39.046Z,2.67
2018-04-12T15:59:07.888Z,2.50
2018-04-12T16:01:36.721Z,3.12
2018-04-12T16:04:05.523Z,4.18
2018-04-12T16:06:34.807Z,1.65
2018-04-12T16:09:09.433Z,2.92
2018-04-12T16:11:44.318Z,2.72
2018-04-12T16:14:13.223Z,3.33
2018-04-12T16:16:42.000Z,2.47
2018-04-12T16:19:16.646Z,2.87
2018-04-12T16:21:45.442Z,2.13
2018-04-12T16:24:14.235Z,2.90
2018-04-12T16:26:43.054Z,4.53
2018-04-12T16:29:11.926Z,2.50
2018-04-12T16:31:41.015Z,2.93
2018-04-12T16:34:09.815Z,3.20
2018-04-12T16:36:38.655Z,3.10
2018-04-12T16:39:07.599Z,2.13
2018-04-12T16:41:36.479Z,2.43
2018-04-12T16:44:05.263Z,2.97
2018-04-12T16:46:40.155Z,6.13
2018-04-12T16:49:08.982Z,3.80
2018-04-12T16:51:37.771Z,3.70
2018-04-12T16:54:12.456Z,2.87
2018-04-12T16:56:41.599Z,2.87
2018-04-12T16:59:10.402Z,2.40
2018-04-12T17:01:39.209Z,2.70
2018-04-12T17:04:08.077Z,3.30
2018-04-12T17:06:36.854Z,1.73
2018-04-12T17:09:13.248Z,1.73
2018-04-12T17:11:47.755Z,4.40
2018-04-12T17:14:16.971Z,4.40
2018-04-12T17:16:45.766Z,2.80
2018-04-12T17:19:14.612Z,2.50
2018-04-12T17:21:49.304Z,7.10
2018-04-12T17:24:18.118Z,2.43
2018-04-12T17:26:46.906Z,4.00
2018-04-12T17:29:21.654Z,1.60
2018-04-12T17:31:50.495Z,3.17
2018-04-12T17:34:19.281Z,1.57
2018-04-12T17:36:48.075Z,3.83
2018-04-12T17:39:17.168Z,3.43
2018-04-12T17:41:54.472Z,5.63
2018-04-12T17:44:23.509Z,1.77
2018-04-12T17:46:52.565Z,3.67
2018-04-12T17:49:27.206Z,2.30
2018-04-12T18:15:51.805Z,4.17
2018-04-12T18:24:23.219Z,2.77
2018-04-12T18:26:52.031Z,3.53
2018-04-12T18:29:20.854Z,4.20
2018-04-12T18:31:49.717Z,2.63
2018-04-12T18:34:18.542Z,4.27
2018-04-12T18:36:47.354Z,5.20
2018-04-12T18:39:16.225Z,6.90
2018-04-12T18:41:45.028Z,9.67
2018-04-12T18:44:13.841Z,4.03
2018-04-12T18:46:42.716Z,6.17
2018-04-12T18:49:11.549Z,4.33
2018-04-12T18:51:40.368Z,2.27
2018-04-12T18:54:09.224Z,2.37
2018-04-12T18:56:38.024Z,2.27
2018-04-12T18:59:06.836Z,3.07
2018-04-12T19:01:41.539Z,3.13
2018-04-12T19:04:17.255Z,4.03
2018-04-12T19:06:46.092Z,2.27
2018-04-12T19:09:18.390Z,6.63
2018-04-12T19:11:52.990Z,2.57
2018-04-12T19:14:21.813Z,2.27
2018-04-12T19:16:56.537Z,2.33
2018-04-12T19:19:31.058Z,4.27
2018-04-12T19:21:59.963Z,3.37
2018-04-12T19:24:34.717Z,6.23
2018-04-12T19:27:04.430Z,2.63
2018-04-12T19:29:39.125Z,3.40
2018-04-12T19:32:07.994Z,4.53
2018-04-12T19:34:42.692Z,4.27
2018-04-12T19:37:11.536Z,3.20
2018-04-12T19:39:46.160Z,3.10
2018-04-12T19:42:21.402Z,3.40
2018-04-12T19:44:50.219Z,2.80
2018-04-12T19:47:19.044Z,3.97
2018-04-12T19:49:47.886Z,3.73
2018-04-12T19:52:16.700Z,4.93
2018-04-12T19:54:45.745Z,5.27
2018-04-12T19:57:14.595Z,2.83
2018-04-12T19:59:43.418Z,3.93
2018-04-12T20:02:18.563Z,4.00
2018-04-12T20:04:47.378Z,6.20
2018-04-12T20:07:22.396Z,4.13
2018-04-12T20:09:51.966Z,4.33
2018-04-12T20:12:20.835Z,3.03
2018-04-12T20:14:49.883Z,4.77
2018-04-12T20:17:18.675Z,2.27
2018-04-12T20:19:55.352Z,6.83
2018-04-12T20:22:24.158Z,1.90
2018-04-12T20:24:52.969Z,4.07
2018-04-12T20:27:21.838Z,6.83
2018-04-12T20:29:50.655Z,2.50
2018-04-12T20:32:19.467Z,3.63
2018-04-12T20:34:48.310Z,4.00
2018-04-12T20:37:17.115Z,3.53
2018-04-12T20:39:51.922Z,4.83
2018-04-12T20:42:20.724Z,3.60
2018-04-12T20:44:49.531Z,3.63
2018-04-12T20:47:18.393Z,3.10
2018-04-12T20:49:47.210Z,5.47
2018-04-12T20:52:21.745Z,4.10
2018-04-12T20:54:56.367Z,3.17
2018-04-12T20:57:26.142Z,4.43
2018-04-12T20:59:54.944Z,3.03
2018-04-12T21:02:23.758Z,2.60
2018-04-12T21:04:52.595Z,2.63
2018-04-12T21:07:23.642Z,4.27
2018-04-12T21:09:52.731Z,4.77
2018-04-12T21:12:21.546Z,3.37
2018-04-12T21:14:50.398Z,2.23
2018-04-12T21:17:25.051Z,2.40
2018-04-12T21:19:53.934Z,3.93
2018-04-12T21:22:22.744Z,3.17
2018-04-12T21:24:51.771Z,3.70
2018-04-12T21:27:21.950Z,4.33
2018-04-12T21:29:50.831Z,3.10
2018-04-12T21:32:19.624Z,3.97
2018-04-12T21:34:48.455Z,3.10
2018-04-12T21:37:17.316Z,2.83
2018-04-12T21:39:46.140Z,4.23
2018-04-12T21:42:14.963Z,5.70
2018-04-12T21:44:50.834Z,4.27
2018-04-12T21:47:19.656Z,5.30
2018-04-12T21:49:48.475Z,4.47
2018-04-12T21:52:17.488Z,6.67
2018-04-12T21:54:52.194Z,2.53
2018-04-12T21:57:26.798Z,3.30
2018-04-12T22:00:01.261Z,5.20
2018-04-12T22:02:30.685Z,2.40
2018-04-12T22:05:05.300Z,4.43
2018-04-12T22:07:39.850Z,5.03
2018-04-12T22:10:09.531Z,3.13
2018-04-12T22:12:50.110Z,2.73
2018-04-12T22:15:18.917Z,3.63
2018-04-12T22:17:47.730Z,2.43
2018-04-12T22:20:22.319Z,3.07
2018-04-12T22:22:51.119Z,3.50
2018-04-12T22:25:19.929Z,2.13
2018-04-12T22:27:48.789Z,4.87
2018-04-12T22:30:17.602Z,5.10
2018-04-12T22:32:46.411Z,4.13
2018-04-12T22:35:15.550Z,3.17
2018-04-12T22:37:50.042Z,2.33
2018-04-12T22:40:24.713Z,2.67
2018-04-12T22:42:53.532Z,2.00
2018-04-12T22:45:22.346Z,3.50
2018-04-12T22:47:51.186Z,3.13
2018-04-12T22:50:19.990Z,2.47
2018-04-12T22:52:48.805Z,3.53
2018-04-12T22:55:17.647Z,3.50
2018-04-12T22:57:52.318Z,2.33
2018-04-12T23:00:21.163Z,3.13
2018-04-12T23:02:55.751Z,3.13
2018-04-12T23:05:30.618Z,2.30
2018-04-12T23:08:05.407Z,3.97
2018-04-12T23:10:37.399Z,4.40
2018-04-12T23:13:12.060Z,3.60
2018-04-12T23:15:41.123Z,1.70
2018-04-12T23:18:15.634Z,2.17
2018-04-12T23:20:44.744Z,2.87
2018-04-12T23:23:13.546Z,4.37
2018-04-12T23:25:42.351Z,4.17
2018-04-12T23:28:11.716Z,3.93
2018-04-12T23:30:40.518Z,2.47
2018-04-12T23:33:09.326Z,3.43
2018-04-12T23:35:38.154Z,2.93
2018-04-12T23:38:06.958Z,2.40
2018-04-12T23:40:35.842Z,4.70
2018-04-12T23:43:04.647Z,4.47
2018-04-12T23:45:33.453Z,4.63
2018-04-12T23:48:03.772Z,4.33
2018-04-12T23:50:32.570Z,3.10
2018-04-12T23:53:01.395Z,2.80
2018-04-12T23:55:30.232Z,4.60
2018-04-12T23:57:59.043Z,3.33
